createdAt,value
2023-09-18T00:05:00.768Z,95.70
2023-09-18T00:10:04.312Z,95.84
2023-09-18T00:15:09.904Z,96.03
2023-09-18T00:20:13.658Z,96.19
2023-09-18T00:25:16.930Z,96.57
2023-09-18T00:30:20.031Z,96.89
2023-09-18T00:35:26.985Z,96.96
2023-09-18T00:40:30.847Z,97.35
2023-09-18T00:45:54.811Z,97.38
2023-09-18T00:50:58.225Z,97.65
2023-09-18T00:56:05.092Z,97.76
2023-09-18T01:01:13.270Z,98.29
2023-09-18T01:06:16.793Z,98.30
2023-09-18T01:11:42.239Z,98.90
2023-09-18T01:17:00.337Z,99.64
2023-09-18T01:22:06.114Z,99.88
2023-09-18T01:27:15.363Z,100.00
2023-09-18T01:32:18.648Z,100.00
2023-09-18T01:37:24.750Z,100.00
2023-09-18T01:42:28.797Z,100.00
2023-09-18T01:47:32.646Z,100.00
2023-09-18T01:52:35.912Z,100.00
2023-09-18T01:57:39.212Z,100.00
2023-09-18T02:02:50.398Z,100.00
2023-09-18T02:08:06.402Z,100.00
2023-09-18T02:13:11.345Z,100.00
2023-09-18T02:18:14.948Z,100.00
2023-09-18T02:23:19.652Z,100.00
2023-09-18T02:28:22.860Z,100.00
2023-09-18T02:33:26.185Z,100.00
2023-09-18T02:38:29.681Z,100.00
2023-09-18T02:43:32.947Z,100.00
2023-09-18T02:48:36.296Z,100.00
2023-09-18T02:53:39.524Z,100.00
2023-09-18T02:58:42.778Z,100.00
2023-09-18T03:03:46.158Z,100.00
2023-09-18T03:08:49.597Z,100.00
2023-09-18T03:13:53.923Z,100.00
2023-09-18T03:19:00.538Z,100.00
2023-09-18T03:24:05.407Z,100.00
2023-09-18T03:29:08.808Z,100.00
2023-09-18T03:34:12.157Z,100.00
2023-09-18T03:39:15.517Z,100.00
2023-09-18T03:44:18.853Z,100.00
2023-09-18T03:49:22.238Z,100.00
2023-09-18T03:54:28.028Z,100.00
2023-09-18T03:59:31.287Z,100.00
2023-09-18T04:04:34.505Z,100.00
2023-09-18T04:09:39.100Z,100.00
2023-09-18T04:14:42.650Z,100.00
2023-09-18T04:19:45.946Z,100.00
2023-09-18T04:24:50.158Z,100.00
2023-09-18T04:29:53.590Z,100.00
2023-09-18T04:34:57.244Z,100.00
2023-09-18T04:40:05.886Z,100.00
2023-09-18T04:45:09.722Z,100.00
2023-09-18T04:50:15.087Z,100.00
2023-09-18T04:55:19.378Z,100.00
2023-09-18T05:00:26.327Z,100.00
2023-09-18T05:05:30.853Z,100.00
2023-09-18T05:10:35.905Z,100.00
2023-09-18T05:15:39.276Z,100.00
2023-09-18T05:20:42.537Z,100.00
2023-09-18T05:25:45.864Z,100.00
2023-09-18T05:30:49.171Z,100.00
2023-09-18T05:35:52.619Z,100.00
2023-09-18T05:40:56.030Z,100.00
2023-09-18T05:45:59.505Z,100.00
2023-09-18T05:51:02.780Z,100.00
2023-09-18T05:56:06.643Z,100.00
2023-09-18T06:01:10.453Z,100.00
2023-09-18T06:06:13.849Z,100.00
2023-09-18T06:11:17.121Z,100.00
2023-09-18T06:16:20.521Z,99.75
2023-09-18T06:21:23.974Z,97.70
2023-09-18T06:26:27.226Z,95.73
2023-09-18T06:31:32.202Z,94.08
2023-09-18T06:36:35.360Z,93.30
2023-09-18T06:41:38.655Z,93.04
2023-09-18T06:46:41.955Z,91.94
2023-09-18T06:51:45.118Z,89.52
2023-09-18T06:56:48.776Z,86.84
2023-09-18T07:01:52.067Z,84.57
2023-09-18T07:06:55.870Z,82.83
2023-09-18T07:11:59.236Z,82.36
2023-09-18T07:17:03.288Z,81.71
2023-09-18T07:22:06.532Z,81.43
2023-09-18T07:27:09.611Z,81.06
2023-09-18T07:32:15.021Z,80.82
2023-09-18T07:37:24.091Z,80.75
2023-09-18T07:42:28.369Z,80.33
2023-09-18T07:47:32.583Z,80.37
2023-09-18T07:52:37.282Z,80.11
2023-09-18T07:57:40.568Z,80.01
2023-09-18T08:02:44.304Z,80.17
2023-09-18T08:07:49.217Z,80.04
2023-09-18T08:12:53.803Z,80.06
2023-09-18T08:17:57.306Z,79.78
2023-09-18T08:23:04.696Z,79.62
2023-09-18T08:28:09.875Z,80.04
2023-09-18T08:33:13.517Z,79.44
2023-09-18T08:38:16.972Z,78.85
2023-09-18T08:43:21.053Z,78.70
2023-09-18T08:48:24.795Z,78.49
2023-09-18T08:53:28.555Z,78.22
2023-09-18T08:58:40.798Z,77.62
2023-09-18T09:03:46.604Z,76.73
2023-09-18T09:08:51.660Z,75.68
2023-09-18T09:14:14.450Z,75.30
2023-09-18T09:19:19.026Z,74.58
2023-09-18T09:24:43.976Z,73.08
2023-09-18T09:30:00.153Z,73.00
2023-09-18T09:35:08.113Z,72.37
2023-09-18T09:40:15.630Z,71.87
2023-09-18T09:45:19.557Z,70.33
2023-09-18T09:50:23.224Z,68.67
2023-09-18T09:55:32.531Z,68.55
2023-09-18T10:00:51.224Z,68.02
2023-09-18T10:05:57.384Z,67.22
2023-09-18T10:11:08.710Z,66.73
2023-09-18T10:16:15.395Z,66.32
2023-09-18T10:21:21.839Z,66.08
2023-09-18T10:26:30.171Z,64.91
2023-09-18T10:31:36.266Z,63.97
2023-09-18T10:36:43.104Z,64.08
2023-09-18T10:41:53.008Z,63.04
2023-09-18T10:46:56.743Z,62.33
2023-09-18T10:52:02.168Z,61.62
2023-09-18T10:57:05.629Z,61.42
2023-09-18T11:02:09.407Z,60.70
2023-09-18T11:07:30.547Z,61.09
2023-09-18T11:13:06.718Z,60.89
2023-09-18T11:18:10.056Z,59.53
2023-09-18T11:23:13.398Z,59.08
2023-09-18T11:28:24.681Z,57.99
2023-09-18T11:33:42.198Z,57.83
2023-09-18T11:39:04.411Z,57.56
2023-09-18T11:44:14.840Z,57.17
2023-09-18T11:49:27.828Z,56.50
2023-09-18T11:54:35.424Z,56.15
2023-09-18T11:59:44.838Z,54.68
2023-09-18T12:04:51.560Z,55.17
2023-09-18T12:09:55.886Z,54.59
2023-09-18T12:14:59.174Z,54.56
2023-09-18T12:20:02.580Z,54.45
2023-09-18T12:25:16.311Z,54.16
2023-09-18T12:30:22.699Z,54.16
2023-09-18T12:35:31.012Z,54.29
2023-09-18T12:40:34.636Z,54.69
2023-09-18T12:45:38.074Z,54.53
2023-09-18T12:50:41.420Z,54.02
2023-09-18T12:55:44.955Z,53.55
2023-09-18T13:00:52.217Z,52.98
2023-09-18T13:06:09.904Z,52.83
2023-09-18T13:11:16.041Z,52.77
2023-09-18T13:16:19.287Z,53.14
2023-09-18T13:21:22.660Z,53.05
2023-09-18T13:26:25.872Z,52.68
2023-09-18T13:31:30.487Z,52.83
2023-09-18T13:36:34.659Z,52.51
2023-09-18T13:41:38.375Z,52.46
2023-09-18T13:46:42.694Z,51.91
2023-09-18T13:51:46.076Z,51.61
2023-09-18T13:56:49.496Z,51.14
2023-09-18T14:01:53.319Z,51.20
2023-09-18T14:06:57.157Z,51.00
2023-09-18T14:12:00.573Z,51.08
2023-09-18T14:17:07.275Z,51.24
2023-09-18T14:22:11.622Z,51.08
2023-09-18T14:27:15.373Z,50.74
2023-09-18T14:32:18.488Z,51.18
2023-09-18T14:37:21.740Z,50.93
2023-09-18T14:42:25.257Z,50.80
2023-09-18T14:47:28.528Z,51.13
2023-09-18T14:52:33.362Z,51.17
2023-09-18T14:57:36.498Z,51.52
2023-09-18T15:02:39.899Z,51.67
2023-09-18T15:07:43.301Z,52.09
2023-09-18T15:12:46.479Z,52.56
2023-09-18T15:17:51.061Z,52.68
2023-09-18T15:22:57.025Z,53.07
2023-09-18T15:28:00.487Z,53.59
2023-09-18T15:33:04.173Z,54.00
2023-09-18T15:38:10.296Z,54.32
2023-09-18T15:43:13.611Z,55.03
2023-09-18T15:48:18.771Z,55.63
2023-09-18T15:53:22.282Z,56.05
2023-09-18T15:58:25.578Z,56.68
2023-09-18T16:03:29.062Z,57.24
2023-09-18T16:08:32.532Z,57.56
2023-09-18T16:13:36.126Z,58.00
2023-09-18T16:18:40.322Z,58.46
2023-09-18T16:23:43.864Z,58.88
2023-09-18T16:28:48.311Z,59.42
2023-09-18T16:33:52.808Z,60.06
2023-09-18T16:38:56.318Z,60.72
2023-09-18T16:43:59.973Z,60.94
2023-09-18T16:49:05.413Z,61.35
2023-09-18T16:54:16.692Z,61.97
2023-09-18T16:59:21.368Z,62.39
2023-09-18T17:04:24.778Z,62.61
2023-09-18T17:09:28.082Z,62.93
2023-09-18T17:14:31.737Z,63.23
2023-09-18T17:19:35.103Z,63.47
2023-09-18T17:24:39.260Z,63.62
2023-09-18T17:29:42.489Z,64.06
2023-09-18T17:34:47.458Z,64.15
2023-09-18T17:39:50.709Z,64.40
2023-09-18T17:44:53.935Z,64.80
2023-09-18T17:49:57.214Z,65.19
2023-09-18T17:55:03.189Z,65.40
2023-09-18T18:00:07.785Z,65.55
2023-09-18T18:05:15.875Z,65.64
2023-09-18T18:10:19.435Z,65.61
2023-09-18T18:15:22.610Z,65.64
2023-09-18T18:20:25.844Z,65.72
2023-09-18T18:25:29.058Z,65.67
2023-09-18T18:30:32.322Z,65.77
2023-09-18T18:35:35.664Z,66.07
2023-09-18T18:40:44.253Z,66.45
2023-09-18T18:45:53.572Z,66.72
2023-09-18T18:51:03.681Z,67.10
2023-09-18T18:56:07.750Z,67.50
2023-09-18T19:01:11.009Z,67.83
2023-09-18T19:06:15.268Z,68.14
2023-09-18T19:11:18.659Z,68.54
2023-09-18T19:16:21.885Z,68.85
2023-09-18T19:21:25.287Z,69.24
2023-09-18T19:26:28.826Z,69.60
2023-09-18T19:31:32.257Z,70.00
2023-09-18T19:36:35.533Z,70.46
2023-09-18T19:41:39.457Z,70.93
2023-09-18T19:46:42.790Z,71.37
2023-09-18T19:51:46.203Z,71.85
2023-09-18T19:56:49.514Z,72.21
2023-09-18T20:01:53.208Z,72.52
2023-09-18T20:06:56.525Z,72.95
2023-09-18T20:12:00.669Z,73.32
2023-09-18T20:17:04.177Z,73.77
2023-09-18T20:22:07.369Z,74.25
2023-09-18T20:27:11.155Z,74.68
2023-09-18T20:32:15.004Z,75.10
2023-09-18T20:37:18.412Z,75.40
2023-09-18T20:42:22.338Z,75.83
2023-09-18T20:47:26.918Z,76.33
2023-09-18T20:52:30.698Z,76.75
2023-09-18T20:57:34.318Z,77.10
2023-09-18T21:02:37.729Z,77.49
2023-09-18T21:07:41.294Z,77.81
2023-09-18T21:12:44.854Z,78.22
2023-09-18T21:17:48.149Z,78.53
2023-09-18T21:22:51.536Z,78.83
2023-09-18T21:28:01.119Z,79.09
2023-09-18T21:33:06.595Z,79.44
2023-09-18T21:38:09.993Z,79.87
2023-09-18T21:43:13.196Z,80.28
2023-09-18T21:48:16.401Z,80.72
2023-09-18T21:53:19.629Z,81.02
2023-09-18T21:58:23.177Z,81.32
2023-09-18T22:03:26.885Z,81.63
2023-09-18T22:08:31.282Z,81.98
2023-09-18T22:13:34.642Z,82.41
2023-09-18T22:18:38.032Z,82.72
2023-09-18T22:23:41.489Z,83.08
2023-09-18T22:28:44.963Z,83.55
2023-09-18T22:33:50.242Z,83.88
2023-09-18T22:39:21.672Z,84.27
2023-09-18T22:45:02.657Z,84.68
2023-09-18T22:50:43.538Z,85.11
2023-09-18T22:55:46.740Z,85.65
2023-09-18T23:00:50.491Z,85.92
2023-09-18T23:05:55.888Z,86.31
2023-09-18T23:11:06.123Z,86.69
2023-09-18T23:16:09.446Z,86.95
2023-09-18T23:21:12.521Z,87.20
2023-09-18T23:26:15.952Z,87.58
2023-09-18T23:31:21.620Z,88.04
2023-09-18T23:36:25.141Z,88.21
2023-09-18T23:41:41.845Z,88.59
2023-09-18T23:46:53.148Z,89.05
2023-09-18T23:52:03.754Z,89.44
2023-09-18T23:57:09.009Z,89.72
